createdAt,value
2023-12-02T00:01:57.416Z,7.93
2023-12-02T00:04:23.863Z,8.15
2023-12-02T00:06:50.345Z,8.48
2023-12-02T00:09:16.835Z,7.70
2023-12-02T00:11:43.558Z,7.43
2023-12-02T00:14:09.951Z,7.55
2023-12-02T00:16:39.065Z,7.20
2023-12-02T00:19:05.585Z,6.90
2023-12-02T00:21:32.266Z,7.97
2023-12-02T00:23:58.816Z,7.95
2023-12-02T00:26:25.227Z,7.72
2023-12-02T00:28:51.980Z,8.18
2023-12-02T00:31:18.511Z,7.57
2023-12-02T00:33:44.992Z,8.05
2023-12-02T00:36:11.911Z,7.50
2023-12-02T00:38:38.308Z,8.40
2023-12-02T00:41:04.977Z,8.05
2023-12-02T00:43:31.409Z,7.60
2023-12-02T00:45:57.878Z,7.78
2023-12-02T00:48:24.610Z,7.43
2023-12-02T00:50:51.082Z,7.40
2023-12-02T00:53:17.504Z,7.63
2023-12-02T00:55:43.932Z,8.27
2023-12-02T00:58:10.382Z,6.85
2023-12-02T01:00:36.832Z,7.80
2023-12-02T01:03:03.692Z,7.55
2023-12-02T01:05:30.171Z,8.52
2023-12-02T01:07:56.671Z,8.43
2023-12-02T01:10:23.121Z,7.53
2023-12-02T01:12:49.534Z,8.43
2023-12-02T01:15:16.033Z,8.23
2023-12-02T01:17:42.512Z,8.20
2023-12-02T01:20:10.439Z,7.20
2023-12-02T01:22:36.915Z,7.75
2023-12-02T01:25:03.618Z,7.30
2023-12-02T01:27:30.055Z,7.85
2023-12-02T01:29:56.577Z,7.75
2023-12-02T01:32:23.021Z,6.68
2023-12-02T01:34:49.971Z,6.93
2023-12-02T01:37:16.370Z,6.88
2023-12-02T01:39:42.904Z,6.78
2023-12-02T01:42:09.403Z,6.13
2023-12-02T01:44:35.878Z,7.20
2023-12-02T01:47:03.327Z,6.25
2023-12-02T01:49:29.867Z,6.57
2023-12-02T01:51:56.389Z,7.07
2023-12-02T01:54:22.972Z,6.85
2023-12-02T01:56:49.481Z,6.22
2023-12-02T01:59:16.273Z,6.47
2023-12-02T02:01:42.806Z,6.82
2023-12-02T02:04:09.327Z,5.82
2023-12-02T02:06:35.773Z,6.63
2023-12-02T02:09:02.302Z,5.80
2023-12-02T02:11:28.711Z,6.50
2023-12-02T02:13:55.277Z,6.72
2023-12-02T02:16:21.729Z,6.15
2023-12-02T02:18:48.175Z,6.05
2023-12-02T02:21:17.864Z,5.45
2023-12-02T02:23:44.593Z,6.30
2023-12-02T02:26:11.019Z,6.53
2023-12-02T02:28:37.491Z,6.10
2023-12-02T02:31:03.994Z,6.25
2023-12-02T02:33:33.108Z,5.63
2023-12-02T02:35:59.865Z,6.43
2023-12-02T02:38:26.321Z,7.03
2023-12-02T02:40:52.699Z,6.18
2023-12-02T02:43:19.160Z,5.80
2023-12-02T02:45:45.620Z,5.43
2023-12-02T02:48:12.151Z,6.45
2023-12-02T02:50:38.616Z,5.63
2023-12-02T02:53:05.045Z,6.40
2023-12-02T02:55:31.461Z,6.00
2023-12-02T02:57:57.894Z,5.70
2023-12-02T03:00:24.443Z,5.45
2023-12-02T03:02:50.978Z,5.55
2023-12-02T03:05:17.432Z,5.68
2023-12-02T03:07:43.792Z,6.05
2023-12-02T03:10:10.266Z,5.20
2023-12-02T03:12:36.836Z,5.38
2023-12-02T03:15:03.488Z,5.15
2023-12-02T03:17:29.998Z,5.68
2023-12-02T03:19:56.522Z,5.97
2023-12-02T03:22:22.958Z,5.43
2023-12-02T03:24:49.876Z,5.55
2023-12-02T03:27:16.304Z,5.05
2023-12-02T03:29:43.043Z,4.93
2023-12-02T03:32:10.085Z,5.18
2023-12-02T03:34:36.583Z,4.43
2023-12-02T03:37:03.455Z,5.30
2023-12-02T03:39:29.974Z,4.95
2023-12-02T03:41:56.841Z,4.75
2023-12-02T03:44:23.590Z,4.78
2023-12-02T03:46:50.006Z,5.20
2023-12-02T03:49:16.547Z,5.60
2023-12-02T03:51:43.484Z,4.80
2023-12-02T03:54:09.884Z,4.60
2023-12-02T03:56:38.360Z,4.97
2023-12-02T03:59:04.746Z,4.00
2023-12-02T04:01:32.461Z,4.88
2023-12-02T04:03:59.080Z,4.95
2023-12-02T04:06:25.498Z,5.18
2023-12-02T04:08:51.889Z,4.63
2023-12-02T04:11:18.346Z,4.95
2023-12-02T04:13:44.721Z,5.63
2023-12-02T04:16:11.406Z,5.38
2023-12-02T04:18:38.320Z,6.13
2023-12-02T04:21:09.424Z,6.07
2023-12-02T04:23:39.136Z,6.53
2023-12-02T04:26:07.818Z,6.30
2023-12-02T04:28:34.348Z,6.22
2023-12-02T04:31:00.913Z,6.32
2023-12-02T04:33:27.470Z,6.82
2023-12-02T04:35:55.025Z,6.13
2023-12-02T04:38:21.847Z,6.53
2023-12-02T04:40:48.273Z,6.30
2023-12-02T04:43:14.715Z,5.72
2023-12-02T04:45:41.646Z,5.97
2023-12-02T04:48:08.443Z,5.18
2023-12-02T04:50:34.844Z,5.85
2023-12-02T04:53:01.535Z,5.28
2023-12-02T04:55:27.935Z,5.00
2023-12-02T04:57:54.374Z,5.18
2023-12-02T05:00:22.180Z,5.57
2023-12-02T05:02:48.676Z,5.78
2023-12-02T05:05:15.171Z,5.60
2023-12-02T05:07:42.357Z,4.85
2023-12-02T05:10:09.145Z,4.78
2023-12-02T05:12:35.616Z,5.50
2023-12-02T05:15:02.431Z,5.60
2023-12-02T05:17:29.009Z,5.72
2023-12-02T05:19:55.517Z,5.65
2023-12-02T05:22:22.006Z,5.00
2023-12-02T05:24:48.439Z,5.50
2023-12-02T05:27:14.958Z,5.38
2023-12-02T05:29:41.387Z,5.25
2023-12-02T05:32:07.846Z,5.57
2023-12-02T05:34:34.491Z,5.93
2023-12-02T05:37:01.125Z,5.65
2023-12-02T05:39:27.648Z,6.07
2023-12-02T05:41:54.188Z,5.78
2023-12-02T05:44:20.655Z,5.35
2023-12-02T05:46:47.110Z,4.90
2023-12-02T05:49:14.180Z,6.18
2023-12-02T05:51:40.818Z,5.40
2023-12-02T05:54:08.681Z,5.30
2023-12-02T05:56:35.141Z,5.97
2023-12-02T05:59:01.787Z,5.60
2023-12-02T06:01:30.530Z,5.40
2023-12-02T06:03:57.873Z,5.40
2023-12-02T06:06:24.473Z,5.18
2023-12-02T06:08:50.916Z,5.18
2023-12-02T06:11:17.337Z,5.05
2023-12-02T06:13:43.948Z,5.35
2023-12-02T06:16:11.042Z,4.80
2023-12-02T06:18:37.615Z,5.10
2023-12-02T06:21:04.279Z,5.20
2023-12-02T06:23:30.728Z,4.72
2023-12-02T06:25:57.189Z,4.70
2023-12-02T06:28:23.665Z,4.95
2023-12-02T06:30:50.227Z,4.75
2023-12-02T06:33:16.732Z,5.07
2023-12-02T06:35:43.293Z,5.28
2023-12-02T06:38:09.671Z,4.68
2023-12-02T06:40:36.095Z,4.82
2023-12-02T06:43:02.498Z,4.78
2023-12-02T06:45:29.391Z,4.95
2023-12-02T06:47:55.903Z,4.63
2023-12-02T06:50:23.712Z,4.97
2023-12-02T06:52:51.834Z,4.40
2023-12-02T06:57:47.552Z,4.65
2023-12-02T07:00:15.059Z,5.28
2023-12-02T07:02:42.816Z,4.15
2023-12-02T07:05:09.714Z,4.90
2023-12-02T07:07:36.827Z,4.65
2023-12-02T07:10:03.777Z,5.07
2023-12-02T07:12:30.233Z,4.72
2023-12-02T07:14:56.805Z,5.15
2023-12-02T07:17:29.179Z,5.68
2023-12-02T07:19:55.701Z,6.80
2023-12-02T07:22:22.120Z,6.47
2023-12-02T07:24:48.541Z,6.93
2023-12-02T07:27:14.988Z,7.90
2023-12-02T07:32:10.794Z,5.43
2023-12-02T07:34:37.302Z,5.38
2023-12-02T07:37:04.148Z,5.80
2023-12-02T07:39:30.578Z,4.75
2023-12-02T07:41:57.157Z,5.35
2023-12-02T07:44:23.649Z,5.75
2023-12-02T07:46:50.099Z,4.80
2023-12-02T07:49:16.521Z,5.15
2023-12-02T07:51:42.929Z,5.40
2023-12-02T07:54:09.430Z,5.80
2023-12-02T07:56:37.942Z,5.55
2023-12-02T07:59:05.080Z,5.90
2023-12-02T08:01:31.626Z,5.10
2023-12-02T08:04:01.861Z,5.03
2023-12-02T08:06:28.297Z,4.88
2023-12-02T08:08:55.096Z,5.25
2023-12-02T08:11:21.701Z,5.60
2023-12-02T08:13:48.167Z,5.75
2023-12-02T08:16:14.644Z,5.22
2023-12-02T08:18:41.114Z,5.55
2023-12-02T08:21:07.876Z,5.45
2023-12-02T08:23:34.302Z,5.35
2023-12-02T08:26:00.712Z,5.43
2023-12-02T08:28:27.143Z,5.90
2023-12-02T08:30:53.522Z,7.35
2023-12-02T08:33:19.922Z,10.05
2023-12-02T08:35:46.357Z,7.90
2023-12-02T08:38:12.722Z,7.00
2023-12-02T08:40:40.402Z,8.05
2023-12-02T08:43:06.922Z,6.55
2023-12-02T08:45:33.360Z,7.20
2023-12-02T08:47:59.933Z,5.30
2023-12-02T08:50:26.512Z,5.60
2023-12-02T08:52:53.339Z,5.90
2023-12-02T08:55:19.811Z,5.63
2023-12-02T08:57:46.226Z,6.03
2023-12-02T09:00:13.136Z,6.18
2023-12-02T09:02:39.608Z,4.85
2023-12-02T09:05:06.587Z,5.22
2023-12-02T09:07:33.222Z,5.30
2023-12-02T09:09:59.681Z,4.80
2023-12-02T09:12:26.091Z,5.15
2023-12-02T09:15:06.872Z,4.97
2023-12-02T09:17:51.870Z,5.03
2023-12-02T09:20:46.867Z,9.20
2023-12-02T09:23:15.192Z,8.40
2023-12-02T09:31:11.941Z,4.72
2023-12-02T09:33:40.730Z,4.47
2023-12-02T09:36:08.204Z,4.57
2023-12-02T09:38:34.768Z,3.90
2023-12-02T09:41:18.854Z,3.85
2023-12-02T09:46:27.584Z,3.80
2023-12-02T09:49:10.514Z,6.60
2023-12-02T09:51:45.585Z,5.93
2023-12-02T09:54:22.893Z,4.40
2023-12-02T09:57:06.122Z,4.22
2023-12-02T09:59:43.540Z,4.80
2023-12-02T10:02:40.868Z,4.47
2023-12-02T10:05:11.186Z,4.88
2023-12-02T10:07:48.986Z,3.97
2023-12-02T10:10:22.814Z,3.90
2023-12-02T10:15:17.911Z,3.60
2023-12-02T10:17:51.527Z,3.83
2023-12-02T10:20:22.417Z,3.78
2023-12-02T10:22:58.971Z,3.85
2023-12-02T10:25:46.415Z,3.45
2023-12-02T10:28:20.930Z,3.53
2023-12-02T10:30:51.376Z,3.90
2023-12-02T10:33:26.576Z,4.63
2023-12-02T10:36:00.327Z,7.28
2023-12-02T10:41:18.392Z,4.07
2023-12-02T10:43:46.111Z,3.92
2023-12-02T10:46:13.612Z,3.95
2023-12-02T10:48:41.139Z,4.00
2023-12-02T10:51:08.678Z,3.85
2023-12-02T10:53:37.073Z,3.97
2023-12-02T10:56:12.062Z,4.13
2023-12-02T10:58:44.015Z,3.80
2023-12-02T11:01:11.545Z,4.00
2023-12-02T11:03:49.644Z,3.97
2023-12-02T11:06:38.972Z,4.22
2023-12-02T11:09:11.825Z,4.07
2023-12-02T11:11:53.553Z,4.27
2023-12-02T11:14:21.510Z,4.25
2023-12-02T11:17:15.102Z,3.60
2023-12-02T11:20:00.428Z,4.15
2023-12-02T11:22:47.803Z,3.92
2023-12-02T11:25:34.453Z,4.70
2023-12-02T11:28:12.406Z,4.45
2023-12-02T11:31:08.152Z,4.18
2023-12-02T11:33:55.774Z,4.50
2023-12-02T11:36:54.670Z,4.45
2023-12-02T11:39:40.212Z,4.20
2023-12-02T11:42:17.678Z,4.38
2023-12-02T11:45:21.065Z,4.47
2023-12-02T11:48:15.201Z,4.85
2023-12-02T11:50:51.636Z,4.78
2023-12-02T11:53:53.746Z,5.20
2023-12-02T11:56:22.715Z,4.60
2023-12-02T11:58:56.791Z,4.78
2023-12-02T12:01:38.096Z,4.93
2023-12-02T12:04:21.335Z,4.60
2023-12-02T12:07:13.308Z,4.97
2023-12-02T12:09:58.114Z,5.75
2023-12-02T12:12:26.397Z,5.13
2023-12-02T12:14:54.676Z,5.60
2023-12-02T12:17:21.194Z,5.22
2023-12-02T12:19:54.774Z,5.40
2023-12-02T12:22:21.176Z,5.78
2023-12-02T12:24:49.307Z,5.15
2023-12-02T12:27:16.516Z,5.78
2023-12-02T12:30:02.215Z,5.38
2023-12-02T12:32:29.665Z,5.05
2023-12-02T12:34:56.156Z,5.45
2023-12-02T12:37:22.822Z,5.65
2023-12-02T12:39:49.717Z,5.90
2023-12-02T12:42:20.153Z,5.93
2023-12-02T12:44:47.179Z,5.70
2023-12-02T12:47:14.676Z,5.25
2023-12-02T12:49:46.687Z,6.20
2023-12-02T12:52:14.900Z,5.35
2023-12-02T12:54:51.539Z,5.60
2023-12-02T12:57:43.029Z,5.47
2023-12-02T13:00:11.437Z,4.78
2023-12-02T13:02:46.989Z,4.70
2023-12-02T13:05:17.785Z,4.97
2023-12-02T13:08:08.701Z,4.43
2023-12-02T13:10:35.846Z,4.32
2023-12-02T13:13:03.391Z,4.80
2023-12-02T13:15:30.677Z,4.05
2023-12-02T13:17:57.932Z,4.03
2023-12-02T13:20:26.257Z,4.22
2023-12-02T13:22:54.161Z,4.00
2023-12-02T13:25:23.291Z,4.35
2023-12-02T13:27:56.709Z,4.60
2023-12-02T13:30:24.402Z,4.25
2023-12-02T13:32:53.247Z,3.70
2023-12-02T13:35:28.097Z,4.25
2023-12-02T13:38:00.538Z,3.95
2023-12-02T13:40:39.195Z,4.55
2023-12-02T13:43:07.154Z,4.18
2023-12-02T13:45:35.388Z,4.40
2023-12-02T13:48:05.688Z,5.30
2023-12-02T13:51:12.493Z,4.60
2023-12-02T13:53:46.263Z,4.82
2023-12-02T13:58:46.800Z,6.35
2023-12-02T14:01:13.097Z,7.20
2023-12-02T14:04:14.407Z,6.78
2023-12-02T14:06:51.423Z,5.88
2023-12-02T14:09:22.404Z,6.10
2023-12-02T14:12:01.478Z,5.55
2023-12-02T14:14:27.889Z,6.13
2023-12-02T14:17:14.162Z,6.18
2023-12-02T14:19:51.755Z,5.13
2023-12-02T14:22:39.432Z,5.53
2023-12-02T14:25:19.454Z,5.00
2023-12-02T14:27:52.873Z,4.95
2023-12-02T14:30:41.623Z,5.40
2023-12-02T14:33:29.800Z,5.78
2023-12-02T14:36:09.928Z,5.78
2023-12-02T14:39:07.596Z,5.05
2023-12-02T14:41:51.845Z,5.20
2023-12-02T14:44:29.018Z,5.80
2023-12-02T14:47:12.004Z,5.60
2023-12-02T14:49:43.090Z,5.38
2023-12-02T14:52:09.855Z,5.90
2023-12-02T14:54:39.419Z,6.55
2023-12-02T14:57:23.639Z,5.53
2023-12-02T15:00:01.033Z,6.13
2023-12-02T15:02:37.926Z,5.45
2023-12-02T15:05:07.480Z,5.25
2023-12-02T15:07:40.219Z,6.88
2023-12-02T15:10:07.266Z,5.70
2023-12-02T15:12:36.561Z,6.38
2023-12-02T15:15:06.123Z,6.82
2023-12-02T15:17:35.243Z,6.82
2023-12-02T15:20:02.113Z,6.70
2023-12-02T15:22:28.483Z,6.55
2023-12-02T15:24:55.300Z,6.07
2023-12-02T15:27:22.210Z,6.10
2023-12-02T15:29:49.030Z,6.78
2023-12-02T15:32:15.709Z,6.43
2023-12-02T15:34:45.903Z,7.68
2023-12-02T15:37:13.046Z,7.43
2023-12-02T15:39:40.196Z,7.43
2023-12-02T15:42:07.457Z,7.50
2023-12-02T15:44:44.218Z,8.15
2023-12-02T15:47:14.613Z,7.70
2023-12-02T15:49:42.912Z,7.88
2023-12-02T15:52:10.193Z,7.88
2023-12-02T15:54:36.996Z,9.20
2023-12-02T15:57:03.676Z,8.45
2023-12-02T15:59:30.255Z,8.15
2023-12-02T16:01:57.545Z,7.70
2023-12-02T16:04:24.286Z,7.95
2023-12-02T16:06:52.356Z,8.73
2023-12-02T16:09:23.207Z,7.78
2023-12-02T16:11:53.823Z,7.50
2023-12-02T16:14:21.148Z,8.35
2023-12-02T16:16:47.802Z,8.73
2023-12-02T16:19:16.409Z,8.13
2023-12-02T16:21:43.058Z,7.15
2023-12-02T16:24:11.324Z,7.72
2023-12-02T16:26:37.861Z,8.05
2023-12-02T16:29:05.358Z,6.90
2023-12-02T16:31:32.358Z,7.13
2023-12-02T16:33:58.959Z,7.32
2023-12-02T16:36:29.164Z,6.88
2023-12-02T16:38:55.806Z,6.68
2023-12-02T16:41:22.546Z,6.53
2023-12-02T16:43:49.008Z,6.50
2023-12-02T16:46:16.208Z,6.88
2023-12-02T16:48:42.960Z,6.55
2023-12-02T16:51:09.549Z,6.18
2023-12-02T16:53:36.399Z,6.57
2023-12-02T16:56:14.049Z,6.30
2023-12-02T16:58:46.272Z,6.90
2023-12-02T17:01:21.056Z,7.00
2023-12-02T17:03:47.426Z,6.45
2023-12-02T17:06:18.250Z,8.20
2023-12-02T17:08:44.848Z,7.13
2023-12-02T17:11:20.456Z,7.32
2023-12-02T17:13:51.414Z,6.30
2023-12-02T17:16:33.603Z,6.05
2023-12-02T17:19:01.105Z,6.32
2023-12-02T17:21:40.904Z,6.18
2023-12-02T17:24:08.353Z,6.13
2023-12-02T17:26:35.102Z,6.65
2023-12-02T17:29:01.800Z,7.20
2023-12-02T17:31:28.212Z,6.82
2023-12-02T17:33:55.052Z,6.72
2023-12-02T17:36:21.537Z,7.30
2023-12-02T17:38:48.136Z,7.38
2023-12-02T17:41:14.569Z,7.25
2023-12-02T17:43:41.055Z,6.85
2023-12-02T17:46:07.594Z,7.43
2023-12-02T17:48:34.182Z,7.30
2023-12-02T17:51:00.770Z,7.50
2023-12-02T17:53:27.248Z,7.15
2023-12-02T17:55:53.713Z,7.47
2023-12-02T17:58:21.620Z,7.22
2023-12-02T18:00:48.509Z,7.43
2023-12-02T18:03:15.693Z,7.72
2023-12-02T18:05:45.005Z,8.05
2023-12-02T18:08:11.394Z,8.80
2023-12-02T18:10:37.778Z,8.88
2023-12-02T18:13:04.217Z,8.63
2023-12-02T18:15:32.486Z,9.15
2023-12-02T18:17:59.116Z,9.35
2023-12-02T18:20:25.542Z,9.48
2023-12-02T18:22:51.933Z,9.77
2023-12-02T18:25:18.810Z,9.65
2023-12-02T18:27:45.224Z,11.05
2023-12-02T18:30:12.360Z,11.32
2023-12-02T18:32:38.920Z,9.63
2023-12-02T18:35:07.539Z,9.75
2023-12-02T18:37:33.914Z,11.00
2023-12-02T18:40:01.448Z,10.68
2023-12-02T18:42:27.913Z,10.98
2023-12-02T18:44:55.204Z,9.98
2023-12-02T18:47:21.681Z,10.38
2023-12-02T18:49:49.604Z,10.05
2023-12-02T18:52:16.222Z,10.30
2023-12-02T18:54:43.154Z,10.95
2023-12-02T18:57:09.626Z,10.63
2023-12-02T18:59:36.008Z,10.77
2023-12-02T19:02:02.831Z,10.38
2023-12-02T19:04:29.355Z,11.65
2023-12-02T19:06:55.839Z,11.05
2023-12-02T19:09:22.236Z,12.25
2023-12-02T19:11:48.684Z,11.48
2023-12-02T19:14:15.104Z,11.68
2023-12-02T19:16:41.884Z,11.40
2023-12-02T19:19:12.695Z,11.60
2023-12-02T19:21:39.854Z,12.35
2023-12-02T19:24:06.642Z,11.75
2023-12-02T19:26:33.808Z,12.77
2023-12-02T19:29:00.232Z,11.57
2023-12-02T19:31:26.807Z,12.48
2023-12-02T19:33:53.370Z,12.65
2023-12-02T19:36:19.810Z,11.88
2023-12-02T19:38:46.200Z,13.05
2023-12-02T19:41:12.971Z,13.13
2023-12-02T19:43:39.460Z,13.05
2023-12-02T19:46:06.124Z,13.30
2023-12-02T19:48:32.586Z,13.85
2023-12-02T19:50:59.015Z,14.35
2023-12-02T19:53:25.455Z,14.82
2023-12-02T19:55:51.918Z,13.00
2023-12-02T19:58:18.312Z,13.88
2023-12-02T20:00:44.808Z,13.18
2023-12-02T20:03:11.292Z,13.65
2023-12-02T20:05:37.836Z,14.85
2023-12-02T20:08:04.344Z,15.20
2023-12-02T20:10:31.511Z,14.20
2023-12-02T20:12:57.876Z,15.07
2023-12-02T20:15:24.294Z,14.93
2023-12-02T20:17:50.915Z,15.00
2023-12-02T20:20:17.427Z,14.57
2023-12-02T20:22:43.794Z,14.35
2023-12-02T20:25:10.264Z,15.52
2023-12-02T20:27:36.706Z,16.45
2023-12-02T20:30:03.566Z,15.48
2023-12-02T20:32:30.101Z,16.52
2023-12-02T20:34:56.510Z,15.75
2023-12-02T20:37:23.015Z,16.00
2023-12-02T20:39:49.597Z,16.05
2023-12-02T20:42:16.096Z,16.83
2023-12-02T20:44:42.579Z,16.65
2023-12-02T20:47:08.949Z,16.33
2023-12-02T20:49:35.422Z,17.17
2023-12-02T20:52:02.021Z,17.48
2023-12-02T20:54:28.445Z,17.80
2023-12-02T20:56:54.973Z,16.95
2023-12-02T20:59:21.661Z,17.73
2023-12-02T21:01:48.103Z,17.88
2023-12-02T21:04:14.530Z,18.75
2023-12-02T21:06:41.099Z,16.80
2023-12-02T21:09:07.687Z,18.23
2023-12-02T21:11:34.135Z,18.48
2023-12-02T21:14:00.525Z,18.23
2023-12-02T21:16:26.946Z,17.08
2023-12-02T21:18:53.420Z,17.27
2023-12-02T21:21:20.602Z,17.50
2023-12-02T21:23:47.074Z,17.50
2023-12-02T21:26:13.559Z,17.70
2023-12-02T21:28:40.121Z,17.25
2023-12-02T21:31:08.106Z,22.15
2023-12-02T21:33:36.113Z,17.70
2023-12-02T21:36:03.013Z,17.48
2023-12-02T21:38:45.693Z,17.20
2023-12-02T21:41:16.446Z,17.83
2023-12-02T21:43:46.838Z,18.63
2023-12-02T21:46:21.824Z,18.40
2023-12-02T21:48:56.682Z,17.40
2023-12-02T21:51:33.509Z,18.20
2023-12-02T21:54:04.899Z,18.35
2023-12-02T21:56:44.415Z,18.77
2023-12-02T21:59:13.930Z,17.20
2023-12-02T22:01:42.001Z,18.02
2023-12-02T22:04:19.384Z,19.10
2023-12-02T22:06:46.319Z,18.35
2023-12-02T22:09:20.346Z,19.33
2023-12-02T22:11:46.808Z,19.33
2023-12-02T22:14:19.393Z,19.75
2023-12-02T22:16:50.818Z,20.63
2023-12-02T22:19:17.466Z,19.90
2023-12-02T22:21:44.114Z,17.92
2023-12-02T22:24:11.674Z,20.50
2023-12-02T22:26:38.159Z,19.55
2023-12-02T22:29:07.463Z,19.52
2023-12-02T22:31:34.241Z,18.80
2023-12-02T22:34:11.833Z,21.20
2023-12-02T22:36:41.361Z,21.05
2023-12-02T22:39:13.127Z,20.45
2023-12-02T22:41:40.260Z,21.05
2023-12-02T22:44:07.905Z,19.75
2023-12-02T22:46:34.361Z,20.70
2023-12-02T22:49:00.828Z,24.05
2023-12-02T22:51:28.641Z,23.40
2023-12-02T22:53:56.354Z,20.83
2023-12-02T22:56:23.741Z,19.60
2023-12-02T22:58:51.900Z,19.38
2023-12-02T23:01:34.749Z,19.55
2023-12-02T23:04:11.000Z,18.42
2023-12-02T23:06:37.594Z,19.35
2023-12-02T23:09:08.277Z,19.45
2023-12-02T23:11:37.537Z,19.45
2023-12-02T23:14:04.542Z,18.17
2023-12-02T23:16:42.131Z,19.58
2023-12-02T23:19:25.777Z,18.92
2023-12-02T23:21:53.056Z,20.13
2023-12-02T23:24:19.572Z,20.58
2023-12-02T23:26:46.136Z,18.13
2023-12-02T23:29:12.617Z,18.63
2023-12-02T23:31:40.169Z,19.00
2023-12-02T23:34:06.769Z,19.15
2023-12-02T23:36:34.705Z,20.08
2023-12-02T23:39:01.378Z,18.23
2023-12-02T23:41:27.761Z,18.92
2023-12-02T23:43:54.172Z,19.60
2023-12-02T23:46:26.439Z,19.67
2023-12-02T23:48:53.756Z,19.45
2023-12-02T23:51:20.721Z,19.20
2023-12-02T23:53:47.114Z,19.10
2023-12-02T23:56:14.065Z,17.98
2023-12-02T23:58:40.486Z,19.42
